Portada
METAR-TAF:

METAR-TAF

Aeropuertos :

Effingham County Memorial Airport

Effingham, Illinois, Estados Unidos

latitud: 39-04-14N, longitud: 088-32-00W, altitud: 179 m

Observación

El informe se hizo hace 18 minutos, a las 06:55 UTC
Viento calma
Temperatura 21°C
Humedad 100%
Presión 1015 hPa
Visibilidad: 16.1 km
Cielo despejado

METAR: K1H2 060655Z AUTO 00000KT 10SM CLR 21/21 A2998 RMK AO2 T02120212

Hora: 02:13 (07:13 UTC)


TAF: falta

Observaciones y pronósticos meteorológicos de más de 4000 aeropuertos (mensajes METAR y TAF).

Los puntos amarillos y rojos representan las estaciones disponibles.

Ponga el ratón en el punto deseado para ver el nombre de la estación.

Haga clic para ver las observaciones y los pronósticos meteorológicos.

Para cambiar el mapa : haga clic en los botones verdes con una cruz de color negro para hacer un zoom, en el botón verde con un guión para alejar o en las flechas verdes para mapas adyacentes.


METAR-TAF: